Time;durP1;ratioP1;P1;durP2;ratioP2;P2;SDS_P1;SDS_P2;PMS_P1;PMS_P2;Temp;Humidity;BMP_temperature;BMP_pressure;BME280_temperature;BME280_humidity;BME280_pressure;Samples;Min_cycle;Max_cycle;Signal;HPM_P1;HPM_P2
2021/06/11 00:00:50;;;;;;;6.53;4.05;;;15.60;99.90;;;;;;5057330;28;20097;-84
2021/06/11 00:03:16;;;;;;;6.97;3.75;;;15.60;99.90;;;;;;5069814;28;20081;-83
2021/06/11 00:05:42;;;;;;;5.57;4.18;;;15.50;99.90;;;;;;5056921;28;20108;-83
2021/06/11 00:08:08;;;;;;;4.95;4.47;;;15.50;99.90;;;;;;5056210;28;20073;-83
2021/06/11 00:10:35;;;;;;;5.93;4.00;;;15.30;99.90;;;;;;5057469;28;20081;-83
2021/06/11 00:13:01;;;;;;;6.45;4.70;;;15.40;99.90;;;;;;5074729;28;20077;-83
2021/06/11 00:15:27;;;;;;;5.45;4.75;;;15.40;99.90;;;;;;5042992;28;20081;-84
2021/06/11 00:17:54;;;;;;;5.32;4.82;;;15.30;99.90;;;;;;5055410;28;20274;-83
2021/06/11 00:20:20;;;;;;;5.32;4.82;;;15.30;99.90;;;;;;5054238;28;20093;-82
2021/06/11 00:22:46;;;;;;;5.47;4.88;;;15.30;99.90;;;;;;5071952;28;20081;-83
2021/06/11 00:25:15;;;;;;;6.07;4.57;;;15.20;99.90;;;;;;5067958;28;20092;-83
2021/06/11 00:27:41;;;;;;;5.35;4.65;;;15.30;99.90;;;;;;5055928;28;20080;-83
2021/06/11 00:30:08;;;;;;;5.45;4.90;;;15.30;99.90;;;;;;5057366;28;20103;-83
2021/06/11 00:32:35;;;;;;;5.10;4.60;;;15.30;99.90;;;;;;5059311;28;20100;-83
2021/06/11 00:35:01;;;;;;;6.05;4.82;;;15.30;99.90;;;;;;5071548;28;20081;-84
2021/06/11 00:37:26;;;;;;;5.20;4.68;;;15.30;99.90;;;;;;5062935;28;20081;-83
2021/06/11 00:39:52;;;;;;;7.15;5.88;;;15.30;99.90;;;;;;5056915;28;20085;-84
2021/06/11 00:42:17;;;;;;;6.22;5.45;;;15.30;99.90;;;;;;5055345;28;20076;-83
2021/06/11 00:44:43;;;;;;;6.68;5.35;;;15.30;99.90;;;;;;5056971;28;20081;-83
2021/06/11 00:47:09;;;;;;;6.85;5.25;;;15.30;99.90;;;;;;5057896;28;20088;-82
2021/06/11 00:49:34;;;;;;;7.68;5.30;;;15.30;99.90;;;;;;5057608;28;20081;-83
2021/06/11 00:52:00;;;;;;;7.15;5.80;;;15.30;99.90;;;;;;5058697;28;20073;-83
2021/06/11 00:54:25;;;;;;;7.95;5.50;;;15.20;99.90;;;;;;5077865;28;20179;-83
2021/06/11 00:56:51;;;;;;;7.97;5.47;;;15.20;99.90;;;;;;5075486;28;20084;-83
2021/06/11 00:59:18;;;;;;;7.85;4.90;;;15.30;99.90;;;;;;5076847;28;20184;-83
2021/06/11 01:01:44;;;;;;;6.28;5.50;;;15.20;99.90;;;;;;5062164;28;20076;-84
2021/06/11 01:04:11;;;;;;;6.45;5.85;;;15.10;99.90;;;;;;5072068;28;20084;-83
2021/06/11 01:06:39;;;;;;;7.65;5.78;;;15.10;99.90;;;;;;5061783;28;20122;-82
2021/06/11 01:09:07;;;;;;;6.43;5.80;;;15.10;99.90;;;;;;5060882;28;20159;-83
2021/06/11 01:11:32;;;;;;;8.57;5.20;;;15.00;99.90;;;;;;5059332;28;20073;-83
2021/06/11 01:13:58;;;;;;;6.60;5.38;;;15.00;99.90;;;;;;5044976;28;20084;-84
2021/06/11 01:16:24;;;;;;;12.20;6.18;;;15.10;99.90;;;;;;5029442;28;20173;-83
2021/06/11 01:18:50;;;;;;;6.72;6.03;;;15.00;99.90;;;;;;5062615;28;20136;-83
2021/06/11 01:21:19;;;;;;;10.48;5.75;;;15.00;99.90;;;;;;5062741;28;20584;-83
2021/06/11 01:24:16;;;;;;;7.43;6.28;;;15.00;99.90;;;;;;5064435;28;20110;-83
2021/06/11 01:26:49;;;;;;;6.57;5.85;;;14.90;99.90;;;;;;5053024;28;20088;-83
2021/06/11 01:29:18;;;;;;;6.75;5.93;;;15.00;99.90;;;;;;5063734;28;20097;-84
2021/06/11 01:31:50;;;;;;;6.20;5.60;;;15.00;99.90;;;;;;5062856;28;20069;-83
2021/06/11 01:34:19;;;;;;;5.65;5.07;;;15.00;99.90;;;;;;5066793;28;20076;-83
2021/06/11 01:36:48;;;;;;;6.55;4.80;;;15.00;99.90;;;;;;5076783;28;20083;-83
2021/06/11 01:39:18;;;;;;;6.00;5.40;;;15.10;99.90;;;;;;5079504;28;20166;-83
2021/06/11 01:41:46;;;;;;;5.90;5.05;;;15.10;99.90;;;;;;5069736;22;20097;-73
2021/06/11 01:44:15;;;;;;;5.55;4.57;;;15.10;99.90;;;;;;5046427;28;20070;-73
2021/06/11 01:46:43;;;;;;;5.47;4.97;;;15.10;99.90;;;;;;5050158;28;20088;-73
2021/06/11 01:49:08;;;;;;;5.60;5.10;;;15.10;99.90;;;;;;5069730;28;20085;-73
2021/06/11 01:51:36;;;;;;;5.93;4.78;;;15.10;99.90;;;;;;5068600;28;20080;-73
2021/06/11 01:54:02;;;;;;;5.78;5.22;;;15.10;99.90;;;;;;5070981;28;20452;-73
2021/06/11 01:56:29;;;;;;;5.85;5.28;;;15.10;99.90;;;;;;5051995;28;20092;-73
2021/06/11 01:58:56;;;;;;;5.55;5.05;;;15.10;99.90;;;;;;5069377;28;20093;-73
2021/06/11 02:01:23;;;;;;;6.10;5.50;;;15.20;99.90;;;;;;5068903;28;20077;-73
2021/06/11 02:03:52;;;;;;;6.13;5.15;;;15.00;99.90;;;;;;5067864;28;20077;-73
2021/06/11 02:06:20;;;;;;;6.47;5.63;;;14.90;99.90;;;;;;5066037;28;20089;-73
2021/06/11 02:08:49;;;;;;;6.15;4.85;;;14.90;99.90;;;;;;5066135;28;20294;-73
2021/06/11 02:11:15;;;;;;;5.57;4.97;;;15.00;99.90;;;;;;5068304;28;20158;-73
2021/06/11 02:13:45;;;;;;;5.47;4.93;;;15.00;99.90;;;;;;5070106;28;20081;-72
2021/06/11 02:16:12;;;;;;;8.45;5.13;;;15.10;99.90;;;;;;5028082;28;20643;-72
2021/06/11 02:18:38;;;;;;;5.10;4.50;;;15.20;99.90;;;;;;5041078;28;20208;-72
2021/06/11 02:21:06;;;;;;;5.47;4.68;;;15.10;99.90;;;;;;5062397;28;20173;-73
2021/06/11 02:23:33;;;;;;;6.15;4.90;;;15.10;99.90;;;;;;5052021;28;20176;-73
2021/06/11 02:26:00;;;;;;;4.78;4.20;;;15.10;99.90;;;;;;5067545;28;20104;-73
2021/06/11 02:28:25;;;;;;;4.65;4.25;;;15.10;99.90;;;;;;5068358;28;20096;-73
2021/06/11 02:30:51;;;;;;;5.47;4.70;;;15.10;99.90;;;;;;5070510;28;20584;-73
2021/06/11 02:33:18;;;;;;;7.35;4.38;;;15.10;99.90;;;;;;5069759;28;20093;-72
2021/06/11 02:35:43;;;;;;;5.47;4.93;;;15.10;99.90;;;;;;5068087;28;20095;-72
2021/06/11 02:38:09;;;;;;;4.85;4.20;;;15.10;99.90;;;;;;5068989;28;20175;-72
2021/06/11 02:40:35;;;;;;;5.20;4.70;;;15.00;99.90;;;;;;5066799;28;20081;-72
2021/06/11 02:43:09;;;;;;;6.85;5.18;;;14.90;99.90;;;;;;5069909;28;20088;-72
2021/06/11 02:45:40;;;;;;;5.05;4.55;;;14.90;99.90;;;;;;5066368;28;20733;-70
2021/06/11 02:48:20;;;;;;;6.20;5.13;;;14.90;99.90;;;;;;5034277;28;20105;-70
2021/06/11 02:50:53;;;;;;;5.45;4.63;;;14.90;99.90;;;;;;5066548;28;20073;-70
2021/06/11 02:53:26;;;;;;;6.45;4.55;;;14.90;99.90;;;;;;5048377;28;20077;-70
2021/06/11 02:55:56;;;;;;;7.60;4.70;;;14.90;99.90;;;;;;5067858;28;20092;-71
2021/06/11 02:58:24;;;;;;;5.35;4.70;;;15.00;99.90;;;;;;5067733;28;20097;-70
2021/06/11 03:00:50;;;;;;;4.78;4.35;;;15.00;99.90;;;;;;5065973;28;20084;-70
2021/06/11 03:03:23;;;;;;;5.40;4.80;;;14.90;99.90;;;;;;5047593;28;20465;-70
2021/06/11 03:05:54;;;;;;;9.38;5.30;;;14.90;99.90;;;;;;5067822;28;20096;-70
2021/06/11 03:08:23;;;;;;;5.22;4.57;;;14.90;99.90;;;;;;5069922;28;20187;-70
2021/06/11 03:10:53;;;;;;;5.07;4.57;;;14.90;99.90;;;;;;5068280;28;20198;-70
2021/06/11 03:13:20;;;;;;;6.30;4.28;;;15.00;99.90;;;;;;5070129;28;20109;-72
2021/06/11 03:15:46;;;;;;;5.07;4.57;;;15.10;99.90;;;;;;5008948;28;20091;-72
2021/06/11 03:18:33;;;;;;;9.13;4.30;;;15.00;99.90;;;;;;5053186;28;20545;-73
2021/06/11 03:21:04;;;;;;;5.10;4.60;;;15.10;99.90;;;;;;5067166;28;20541;-73
2021/06/11 03:23:36;;;;;;;4.68;4.20;;;15.00;99.90;;;;;;5066576;28;20096;-73
2021/06/11 03:26:04;;;;;;;4.57;3.95;;;15.10;99.90;;;;;;5064585;28;20109;-73
2021/06/11 03:28:50;;;;;;;4.97;4.47;;;15.20;99.90;;;;;;5066651;28;20085;-73
2021/06/11 03:31:31;;;;;;;4.88;4.20;;;15.10;99.90;;;;;;5050567;28;20130;-73
2021/06/11 03:34:04;;;;;;;4.18;3.60;;;15.10;99.90;;;;;;5069473;28;20106;-70
2021/06/11 03:36:33;;;;;;;5.72;4.35;;;15.10;99.90;;;;;;5065323;28;20077;-70
2021/06/11 03:39:04;;;;;;;4.15;3.65;;;15.10;99.90;;;;;;5051799;28;20100;-70
2021/06/11 03:41:34;;;;;;;5.07;4.57;;;15.10;99.90;;;;;;5063432;28;20460;-70
2021/06/11 03:44:02;;;;;;;4.88;3.75;;;15.00;99.90;;;;;;5046833;28;20488;-70
2021/06/11 03:46:31;;;;;;;6.97;4.00;;;15.00;99.90;;;;;;5065114;28;20093;-70
2021/06/11 03:48:59;;;;;;;5.55;4.32;;;15.00;99.90;;;;;;5065815;28;20226;-72
2021/06/11 03:51:29;;;;;;;8.48;4.50;;;15.10;99.90;;;;;;5067994;28;20077;-73
2021/06/11 03:53:56;;;;;;;7.03;4.35;;;15.10;99.90;;;;;;5049142;28;20525;-73
2021/06/11 03:56:25;;;;;;;4.00;3.60;;;14.90;99.90;;;;;;5068061;28;20073;-72
2021/06/11 03:58:52;;;;;;;3.70;3.40;;;14.90;99.90;;;;;;5067140;28;20089;-72
2021/06/11 04:01:21;;;;;;;4.22;3.83;;;15.00;99.90;;;;;;5041727;28;20073;-73
2021/06/11 04:03:47;;;;;;;4.07;3.78;;;15.00;99.90;;;;;;5064571;28;20073;-73
2021/06/11 04:06:17;;;;;;;4.28;3.88;;;15.00;99.90;;;;;;5065448;28;20104;-72
2021/06/11 04:08:42;;;;;;;4.05;3.38;;;15.00;99.90;;;;;;5065813;28;20092;-73
2021/06/11 04:11:15;;;;;;;4.88;4.05;;;15.00;99.90;;;;;;5065892;28;20073;-73
2021/06/11 04:13:51;;;;;;;6.15;4.20;;;15.00;99.90;;;;;;5062966;28;20530;-73
2021/06/11 04:16:21;;;;;;;4.20;3.70;;;15.10;99.90;;;;;;5024938;28;20184;-73
2021/06/11 04:18:48;;;;;;;5.50;3.83;;;15.10;99.90;;;;;;5052689;28;20180;-72
2021/06/11 04:21:34;;;;;;;4.78;3.72;;;15.10;99.90;;;;;;5064895;28;20077;-73
2021/06/11 04:24:03;;;;;;;4.30;3.90;;;15.10;99.90;;;;;;5066656;28;20080;-73
2021/06/11 04:26:32;;;;;;;5.10;3.67;;;15.20;99.90;;;;;;5066338;28;20093;-73
2021/06/11 04:28:59;;;;;;;4.03;3.70;;;15.20;99.90;;;;;;5065451;28;20715;-73
2021/06/11 04:31:28;;;;;;;6.72;3.42;;;15.30;99.90;;;;;;5066017;28;20069;-73
2021/06/11 04:33:54;;;;;;;3.72;3.33;;;15.20;99.90;;;;;;5064115;28;20602;-73
2021/06/11 04:36:19;;;;;;;5.43;3.60;;;15.20;99.90;;;;;;5071106;28;20076;-73
2021/06/11 04:39:20;;;;;;;4.57;3.75;;;15.30;99.90;;;;;;5071465;28;20092;-73
2021/06/11 04:41:45;;;;;;;5.57;3.97;;;15.30;99.90;;;;;;5041549;28;20097;-72
2021/06/11 04:44:11;;;;;;;4.28;3.80;;;15.30;99.90;;;;;;5070999;28;20163;-73
2021/06/11 04:46:37;;;;;;;5.22;3.47;;;15.40;99.90;;;;;;5065518;28;21269;-74
2021/06/11 04:49:07;;;;;;;4.93;3.65;;;15.40;99.90;;;;;;5069201;28;20507;-72
2021/06/11 04:51:34;;;;;;;4.30;3.90;;;15.40;99.90;;;;;;5073863;28;20091;-73
2021/06/11 04:54:00;;;;;;;3.60;3.30;;;15.40;99.90;;;;;;5072535;28;20429;-73
2021/06/11 04:56:26;;;;;;;5.68;4.10;;;15.40;99.90;;;;;;5070993;28;20167;-73
2021/06/11 04:58:54;;;;;;;7.45;3.95;;;15.50;99.90;;;;;;5052004;28;20618;-72
2021/06/11 05:01:20;;;;;;;4.10;3.70;;;15.50;99.90;;;;;;5053235;28;20432;-73
2021/06/11 05:03:45;;;;;;;5.60;4.00;;;15.60;99.90;;;;;;5021919;28;20108;-73
2021/06/11 05:06:11;;;;;;;3.67;3.38;;;15.60;99.90;;;;;;5071612;28;20680;-78
2021/06/11 05:08:37;;;;;;;5.47;3.65;;;15.70;99.90;;;;;;5049886;28;20888;-73
2021/06/11 05:11:03;;;;;;;3.78;3.38;;;15.70;99.90;;;;;;5071913;28;20103;-82
2021/06/11 05:13:30;;;;;;;4.18;3.75;;;15.80;99.90;;;;;;5072778;28;20523;-73
2021/06/11 05:15:55;;;;;;;4.07;3.60;;;15.80;99.90;;;;;;5016529;28;20506;-74
2021/06/11 05:18:25;;;;;;;4.88;4.28;;;15.90;99.90;;;;;;5053660;28;20219;-73
2021/06/11 05:20:51;;;;;;;5.28;3.70;;;15.90;99.90;;;;;;5073127;28;20085;-77
2021/06/11 05:23:18;;;;;;;5.85;3.90;;;16.00;99.90;;;;;;5070443;28;20176;-73
2021/06/11 05:25:45;;;;;;;5.95;3.92;;;16.00;99.90;;;;;;5072779;28;20098;-73
2021/06/11 05:28:10;;;;;;;4.57;4.18;;;16.10;99.90;;;;;;5071751;28;20557;-73
2021/06/11 05:30:36;;;;;;;6.50;4.78;;;16.20;99.90;;;;;;5074318;28;20123;-73
2021/06/11 05:33:02;;;;;;;4.43;4.03;;;16.40;99.90;;;;;;5072346;28;20552;-74
2021/06/11 05:35:28;;;;;;;5.22;4.28;;;16.40;99.90;;;;;;5071666;28;20081;-73
2021/06/11 05:37:56;;;;;;;5.22;3.45;;;16.50;99.90;;;;;;5070961;28;20624;-73
2021/06/11 05:40:21;;;;;;;4.60;3.60;;;16.50;99.90;;;;;;5073674;28;20073;-74
2021/06/11 05:42:49;;;;;;;4.15;3.75;;;16.60;99.90;;;;;;5071287;28;20164;-74
2021/06/11 05:45:15;;;;;;;4.15;3.55;;;16.70;99.90;;;;;;5068128;28;20093;-73
2021/06/11 05:47:40;;;;;;;4.70;4.30;;;16.70;99.90;;;;;;5069166;28;20578;-73
2021/06/11 05:50:07;;;;;;;3.65;3.28;;;16.80;99.90;;;;;;5069061;28;20146;-73
2021/06/11 05:52:34;;;;;;;5.35;3.88;;;17.00;99.90;;;;;;5067379;28;20076;-73
2021/06/11 05:55:00;;;;;;;3.67;3.38;;;17.00;99.90;;;;;;5069183;28;20073;-73
2021/06/11 05:57:25;;;;;;;4.07;3.58;;;17.00;99.90;;;;;;5060224;28;20077;-73
2021/06/11 05:59:54;;;;;;;4.35;3.50;;;17.10;99.90;;;;;;5070074;28;20491;-73
2021/06/11 06:02:21;;;;;;;4.13;3.45;;;17.10;99.90;;;;;;5065054;28;20528;-72
2021/06/11 06:04:46;;;;;;;4.75;3.25;;;17.10;99.90;;;;;;5069166;28;20112;-72
2021/06/11 06:07:12;;;;;;;3.30;3.00;;;17.00;99.90;;;;;;5047395;28;20124;-73
2021/06/11 06:09:37;;;;;;;5.10;3.85;;;17.10;99.90;;;;;;5049620;28;20085;-73
2021/06/11 06:12:03;;;;;;;4.53;4.10;;;17.10;99.90;;;;;;5048689;28;20518;-72
2021/06/11 06:14:29;;;;;;;6.95;3.55;;;17.10;99.90;;;;;;5067001;28;20160;-72
2021/06/11 06:16:55;;;;;;;5.47;3.95;;;17.20;99.90;;;;;;4994150;28;20087;-72
2021/06/11 06:19:20;;;;;;;4.90;4.40;;;17.20;99.90;;;;;;5067370;28;20549;-72
2021/06/11 06:21:46;;;;;;;6.35;3.90;;;17.20;99.90;;;;;;5044493;28;20138;-73
2021/06/11 06:24:12;;;;;;;4.28;3.88;;;17.30;99.90;;;;;;5063347;28;20093;-73
2021/06/11 06:26:37;;;;;;;5.22;4.00;;;17.20;99.90;;;;;;5042079;28;20124;-73
2021/06/11 06:29:03;;;;;;;4.15;3.42;;;17.20;99.90;;;;;;5062312;28;20089;-72
2021/06/11 06:31:29;;;;;;;4.28;3.88;;;17.20;99.90;;;;;;5068655;28;20081;-73
2021/06/11 06:33:54;;;;;;;5.22;4.47;;;17.20;99.90;;;;;;5066800;28;20080;-73
2021/06/11 06:36:20;;;;;;;5.47;4.97;;;17.30;99.90;;;;;;5065641;28;20164;-73
2021/06/11 06:38:46;;;;;;;5.43;4.47;;;17.30;99.90;;;;;;5066518;28;20131;-73
2021/06/11 06:41:12;;;;;;;5.60;4.25;;;17.30;99.90;;;;;;5063675;28;20452;-73
2021/06/11 06:43:37;;;;;;;6.88;4.85;;;17.30;99.90;;;;;;5048717;28;20081;-74
2021/06/11 06:46:05;;;;;;;4.88;4.25;;;17.20;99.90;;;;;;5048718;28;20096;-73
2021/06/11 06:48:31;;;;;;;6.03;4.60;;;17.30;99.90;;;;;;5068552;28;20821;-74
2021/06/11 06:50:57;;;;;;;5.65;4.55;;;17.30;99.90;;;;;;5069909;28;20122;-73
2021/06/11 06:53:23;;;;;;;5.22;4.63;;;17.30;99.90;;;;;;5067397;28;20501;-73
2021/06/11 06:55:49;;;;;;;5.65;5.05;;;17.40;99.90;;;;;;5067561;28;20168;-70
2021/06/11 06:58:15;;;;;;;6.07;5.07;;;17.40;99.90;;;;;;5068053;28;20108;-70
2021/06/11 07:00:40;;;;;;;6.35;5.50;;;17.40;99.90;;;;;;5049338;28;20081;-70
2021/06/11 07:03:06;;;;;;;7.85;5.07;;;17.50;99.90;;;;;;5064721;28;20081;-73
2021/06/11 07:05:32;;;;;;;6.00;5.40;;;17.60;99.90;;;;;;5066362;28;20085;-71
2021/06/11 07:07:58;;;;;;;7.47;5.45;;;17.70;99.90;;;;;;5067645;28;20100;-71
2021/06/11 07:10:24;;;;;;;6.82;5.20;;;17.90;99.90;;;;;;5047356;28;20138;-71
2021/06/11 07:12:49;;;;;;;6.65;6.05;;;18.00;99.90;;;;;;5066152;28;20077;-71
2021/06/11 07:15:15;;;;;;;7.18;6.40;;;18.10;99.90;;;;;;5048791;28;20104;-71
2021/06/11 07:17:41;;;;;;;5.60;5.07;;;18.30;99.90;;;;;;5028831;28;20076;-71
2021/06/11 07:20:08;;;;;;;6.18;5.57;;;18.30;99.90;;;;;;5041184;28;20196;-71
2021/06/11 07:22:34;;;;;;;5.63;5.10;;;18.50;99.90;;;;;;5060417;28;20084;-71
2021/06/11 07:25:04;;;;;;;5.50;4.72;;;18.50;99.90;;;;;;5067331;28;20081;-71
2021/06/11 07:27:32;;;;;;;4.97;4.57;;;18.60;99.90;;;;;;5064991;28;20069;-71
2021/06/11 07:30:03;;;;;;;5.85;4.20;;;18.60;99.90;;;;;;5066535;28;20089;-71
2021/06/11 07:32:29;;;;;;;5.20;4.70;;;18.70;99.90;;;;;;5065981;28;20109;-71
2021/06/11 07:34:55;;;;;;;5.13;4.25;;;18.70;99.90;;;;;;5065106;28;20174;-73
2021/06/11 07:37:20;;;;;;;4.45;3.88;;;18.80;99.90;;;;;;5064949;28;20081;-71
2021/06/11 07:39:46;;;;;;;4.55;4.13;;;18.90;99.90;;;;;;5041541;28;20206;-71
2021/06/11 07:42:12;;;;;;;4.25;3.85;;;18.90;99.90;;;;;;5048479;28;20078;-74
2021/06/11 07:44:39;;;;;;;4.03;3.63;;;19.00;99.90;;;;;;5023626;28;21785;-73
2021/06/11 07:47:05;;;;;;;5.22;4.30;;;19.00;99.90;;;;;;5051267;28;20558;-72
2021/06/11 07:49:31;;;;;;;6.00;4.43;;;19.10;99.90;;;;;;5013000;28;20118;-72
2021/06/11 07:51:57;;;;;;;4.60;3.30;;;19.20;99.90;;;;;;5060217;28;20073;-71
2021/06/11 07:54:22;;;;;;;6.43;4.80;;;19.20;99.90;;;;;;5066432;28;20069;-71
2021/06/11 07:56:48;;;;;;;5.13;4.63;;;19.30;99.90;;;;;;5047466;28;20077;-71
2021/06/11 07:59:15;;;;;;;4.20;3.65;;;19.40;99.90;;;;;;5054161;28;20116;-71
2021/06/11 08:01:41;;;;;;;4.70;4.28;;;19.40;99.90;;;;;;5039390;28;20092;-71
2021/06/11 08:04:06;;;;;;;4.25;3.85;;;19.50;99.90;;;;;;5068282;28;20100;-71
2021/06/11 08:06:32;;;;;;;5.72;3.85;;;19.70;99.90;;;;;;5063554;28;20108;-72
2021/06/11 08:08:57;;;;;;;4.15;3.75;;;19.50;99.90;;;;;;5064131;28;20100;-71
2021/06/11 08:11:23;;;;;;;4.55;4.05;;;19.70;99.90;;;;;;5062803;28;20455;-72
2021/06/11 08:13:48;;;;;;;3.90;3.50;;;19.60;99.90;;;;;;5065353;28;20139;-71
2021/06/11 08:16:14;;;;;;;3.47;3.17;;;19.80;99.90;;;;;;5066093;28;20445;-71
2021/06/11 08:18:39;;;;;;;3.40;3.10;;;19.70;99.90;;;;;;5066309;28;20103;-71
2021/06/11 08:21:05;;;;;;;4.47;4.07;;;19.90;99.90;;;;;;5066550;28;20156;-71
2021/06/11 08:23:31;;;;;;;5.50;3.90;;;19.90;99.90;;;;;;5041195;28;20143;-71
2021/06/11 08:25:57;;;;;;;4.05;3.45;;;19.80;99.90;;;;;;5064152;28;20107;-72
2021/06/11 08:28:22;;;;;;;5.70;4.18;;;19.70;99.90;;;;;;5066204;28;20101;-72
2021/06/11 08:30:49;;;;;;;3.97;3.60;;;19.90;99.90;;;;;;5066435;28;20175;-72
2021/06/11 08:33:15;;;;;;;5.30;3.83;;;20.00;99.90;;;;;;5064788;28;20069;-72
2021/06/11 08:35:40;;;;;;;4.30;3.90;;;20.10;99.90;;;;;;5066634;28;20605;-72
2021/06/11 08:38:06;;;;;;;4.13;3.70;;;20.20;99.90;;;;;;5059218;28;20081;-72
2021/06/11 08:40:32;;;;;;;4.75;4.25;;;20.50;99.90;;;;;;5064262;28;20069;-72
2021/06/11 08:42:58;;;;;;;5.43;4.93;;;20.50;99.90;;;;;;5044351;28;20111;-72
2021/06/11 08:45:24;;;;;;;4.97;4.47;;;20.40;99.90;;;;;;5065293;28;20093;-72
2021/06/11 08:47:52;;;;;;;5.78;4.88;;;20.50;99.90;;;;;;5047069;28;20127;-72
2021/06/11 08:50:26;;;;;;;4.63;4.22;;;20.40;99.90;;;;;;5065671;28;20077;-71
2021/06/11 08:52:52;;;;;;;;;;;20.30;99.90;;;;;;5063864;28;20159;-72
2021/06/11 08:55:18;;;;;;;5.75;4.72;;;19.90;99.90;;;;;;5067227;28;20055;-71
2021/06/11 08:57:44;;;;;;;6.88;4.75;;;20.00;99.90;;;;;;5063979;28;20165;-71
2021/06/11 09:00:10;;;;;;;5.63;4.03;;;20.30;99.90;;;;;;5066325;28;20112;-72
2021/06/11 09:03:15;;;;;;;4.93;4.35;;;20.50;99.90;;;;;;5062793;28;20076;-73
2021/06/11 09:05:43;;;;;;;4.93;4.00;;;20.60;99.90;;;;;;5064749;28;20092;-71
2021/06/11 09:08:24;;;;;;;5.20;4.70;;;20.70;99.90;;;;;;5063013;28;20096;-72
2021/06/11 09:10:52;;;;;;;6.53;4.57;;;20.90;99.90;;;;;;5063562;28;20149;-72
2021/06/11 09:13:26;;;;;;;5.13;4.35;;;21.10;99.90;;;;;;5065333;28;20107;-72
2021/06/11 09:16:13;;;;;;;6.35;4.30;;;21.00;99.90;;;;;;5058591;28;20088;-72
2021/06/11 09:18:42;;;;;;;4.93;4.32;;;21.00;99.90;;;;;;5035884;28;20113;-72
2021/06/11 09:21:24;;;;;;;4.82;4.32;;;21.20;99.90;;;;;;5052049;28;20123;-72
2021/06/11 09:24:22;;;;;;;4.65;4.25;;;20.80;99.90;;;;;;5065177;28;20073;-73
2021/06/11 09:27:01;;;;;;;4.05;3.65;;;20.90;99.90;;;;;;5065337;28;20124;-73
2021/06/11 09:29:43;;;;;;;5.22;4.72;;;21.20;99.90;;;;;;5063663;28;20093;-73
2021/06/11 09:32:13;;;;;;;5.35;4.85;;;21.00;99.90;;;;;;5068272;28;20122;-73
2021/06/11 09:34:39;;;;;;;6.32;4.53;;;20.90;99.90;;;;;;5068858;28;20095;-73
2021/06/11 09:37:05;;;;;;;4.97;3.67;;;20.90;99.90;;;;;;5061907;28;20081;-73
2021/06/11 09:39:49;;;;;;;3.50;3.20;;;20.80;99.90;;;;;;5055389;28;20089;-75
2021/06/11 09:42:19;;;;;;;3.80;3.37;;;20.80;99.90;;;;;;5026462;28;20451;-74
2021/06/11 09:45:02;;;;;;;3.15;2.92;;;20.80;99.90;;;;;;5061673;28;20690;-75
2021/06/11 09:47:34;;;;;;;4.65;3.58;;;21.00;99.90;;;;;;5040290;28;20084;-74
2021/06/11 09:50:08;;;;;;;3.50;3.20;;;20.90;99.90;;;;;;5064946;28;20671;-74
2021/06/11 09:53:08;;;;;;;5.90;3.85;;;21.10;99.90;;;;;;5046574;28;20559;-72
2021/06/11 09:55:37;;;;;;;4.18;3.72;;;21.20;99.90;;;;;;5040505;28;20084;-72
2021/06/11 09:58:18;;;;;;;3.88;3.42;;;21.20;99.90;;;;;;5039840;28;20138;-73
2021/06/11 10:00:57;;;;;;;4.35;3.30;;;21.30;99.90;;;;;;5044994;28;20074;-73
2021/06/11 10:03:37;;;;;;;4.25;3.58;;;21.40;99.90;;;;;;5040363;28;20215;-73
2021/06/11 10:06:05;;;;;;;4.07;3.60;;;21.50;99.90;;;;;;5060433;28;20093;-75
2021/06/11 10:08:31;;;;;;;4.15;3.60;;;21.40;99.90;;;;;;5059100;28;20184;-72
2021/06/11 10:10:59;;;;;;;4.65;3.85;;;21.50;99.90;;;;;;5057072;28;20154;-73
2021/06/11 10:13:25;;;;;;;6.40;3.90;;;21.30;99.90;;;;;;5045094;28;20073;-72
2021/06/11 10:15:57;;;;;;;4.38;3.97;;;21.20;99.90;;;;;;5062627;28;20145;-72
2021/06/11 10:18:22;;;;;;;6.18;4.20;;;21.20;99.90;;;;;;5057511;28;20093;-72
2021/06/11 10:20:49;;;;;;;4.10;3.65;;;21.10;99.90;;;;;;5058836;28;20084;-72
2021/06/11 10:23:17;;;;;;;4.38;3.90;;;21.00;99.90;;;;;;5061576;28;20849;-72
2021/06/11 10:25:46;;;;;;;4.28;3.83;;;21.20;99.90;;;;;;5023312;28;20207;-72
2021/06/11 10:28:24;;;;;;;4.45;3.95;;;21.30;99.90;;;;;;5044683;28;20127;-73
2021/06/11 10:31:04;;;;;;;4.25;3.85;;;21.50;99.90;;;;;;5060684;28;20068;-72
2021/06/11 10:33:45;;;;;;;4.20;3.80;;;21.60;99.90;;;;;;5060452;28;20073;-72
2021/06/11 10:36:27;;;;;;;3.92;3.22;;;21.80;99.90;;;;;;5054220;28;20072;-72
2021/06/11 10:39:21;;;;;;;6.13;4.47;;;22.00;99.90;;;;;;5053141;28;20094;-72
2021/06/11 10:41:53;;;;;;;;;;;21.70;99.90;;;;;;5057881;28;20130;-72
2021/06/11 10:44:38;;;;;;;4.13;3.72;;;21.60;99.90;;;;;;5051904;28;19957;-72
2021/06/11 10:47:34;;;;;;;4.70;3.42;;;21.80;99.90;;;;;;5039989;28;20093;-72
2021/06/11 10:50:01;;;;;;;4.22;2.97;;;21.80;99.90;;;;;;5046560;28;20097;-72
2021/06/11 10:52:53;;;;;;;3.90;3.28;;;21.80;99.90;;;;;;5058250;28;20070;-72
2021/06/11 10:55:19;;;;;;;4.03;3.05;;;21.70;99.90;;;;;;5061494;28;20073;-73
2021/06/11 10:57:53;;;;;;;4.95;3.17;;;21.90;99.90;;;;;;5061934;28;20564;-73
2021/06/11 11:00:28;;;;;;;4.03;3.63;;;21.90;99.90;;;;;;5060932;28;20102;-79
2021/06/11 11:02:57;;;;;;;5.97;3.85;;;21.90;99.90;;;;;;5049679;28;20072;-75
2021/06/11 11:05:31;;;;;;;3.75;3.35;;;21.80;99.90;;;;;;5067693;28;20509;-77
2021/06/11 11:07:57;;;;;;;5.20;3.67;;;21.90;99.90;;;;;;5063442;28;20073;-73
2021/06/11 11:10:42;;;;;;;3.90;3.60;;;22.00;99.90;;;;;;5025475;28;20072;-73
2021/06/11 11:13:36;;;;;;;4.40;4.00;;;22.20;99.90;;;;;;5036833;28;20074;-72
2021/06/11 11:16:19;;;;;;;4.15;3.75;;;22.30;99.90;;;;;;5054869;28;20100;-75
2021/06/11 11:18:45;;;;;;;3.95;3.55;;;22.60;99.90;;;;;;5037491;28;20100;-75
2021/06/11 11:21:32;;;;;;;3.63;3.20;;;22.50;99.90;;;;;;5066026;28;20100;-72
2021/06/11 11:24:04;;;;;;;3.70;3.35;;;22.40;99.90;;;;;;5067961;28;20075;-72
2021/06/11 11:26:48;;;;;;;4.03;3.63;;;22.70;99.90;;;;;;5064983;28;20093;-73
2021/06/11 11:29:16;;;;;;;3.58;3.28;;;23.00;99.90;;;;;;5065386;28;20088;-72
2021/06/11 11:31:42;;;;;;;3.35;2.90;;;22.90;99.90;;;;;;5054026;28;20077;-72
2021/06/11 11:34:09;;;;;;;3.45;2.78;;;23.00;99.90;;;;;;5043166;28;20088;-73
2021/06/11 11:36:35;;;;;;;3.30;3.00;;;23.10;99.90;;;;;;5060434;28;20073;-73
2021/06/11 11:39:05;;;;;;;2.42;2.22;;;23.00;99.90;;;;;;5065570;28;20100;-73
2021/06/11 11:41:31;;;;;;;2.85;2.40;;;22.80;99.90;;;;;;5068686;28;20100;-72
2021/06/11 11:43:56;;;;;;;6.18;3.53;;;22.80;99.90;;;;;;5066580;28;20587;-72
2021/06/11 11:46:22;;;;;;;3.05;2.75;;;22.60;99.70;;;;;;5068607;28;20103;-72
2021/06/11 11:48:47;;;;;;;3.53;2.63;;;22.60;99.80;;;;;;5048112;28;20096;-73
2021/06/11 11:51:13;;;;;;;2.80;2.60;;;22.60;99.30;;;;;;5065527;28;20533;-72
2021/06/11 11:53:39;;;;;;;3.95;2.47;;;22.40;99.40;;;;;;5046615;28;20398;-73
2021/06/11 11:56:06;;;;;;;7.10;2.97;;;22.50;99.90;;;;;;5065656;28;20072;-72
2021/06/11 11:58:32;;;;;;;3.60;2.65;;;23.00;99.90;;;;;;5058237;28;20096;-73
2021/06/11 12:00:57;;;;;;;3.33;2.72;;;22.80;99.90;;;;;;5067590;28;20079;-75
2021/06/11 12:03:23;;;;;;;2.50;2.30;;;22.60;99.90;;;;;;5066595;28;20639;-72
2021/06/11 12:05:48;;;;;;;3.20;2.90;;;22.80;99.20;;;;;;5065104;28;20214;-76
2021/06/11 12:08:14;;;;;;;3.92;2.72;;;22.70;99.00;;;;;;5063647;28;20171;-76
2021/06/11 12:10:39;;;;;;;2.60;2.35;;;22.80;98.70;;;;;;5068769;28;20081;-74
2021/06/11 12:13:05;;;;;;;4.35;2.60;;;22.70;98.60;;;;;;5068157;28;20076;-75
2021/06/11 12:15:31;;;;;;;2.92;2.28;;;22.60;98.30;;;;;;5061254;28;20105;-74
2021/06/11 12:17:57;;;;;;;3.00;2.80;;;22.50;98.70;;;;;;5052037;28;20165;-74
2021/06/11 12:20:23;;;;;;;5.55;4.45;;;22.60;99.60;;;;;;5068180;28;20401;-76
2021/06/11 12:22:49;;;;;;;4.10;3.00;;;22.60;99.90;;;;;;5068764;28;20078;-74
2021/06/11 12:25:15;;;;;;;4.88;3.53;;;22.50;99.90;;;;;;5067666;28;20077;-74
2021/06/11 12:27:40;;;;;;;5.88;4.07;;;22.60;99.90;;;;;;5049289;28;20436;-75
2021/06/11 12:30:06;;;;;;;3.92;3.08;;;22.70;99.90;;;;;;5069015;28;20545;-76
2021/06/11 12:32:35;;;;;;;4.10;3.45;;;22.80;99.90;;;;;;5049362;28;20164;-73
2021/06/11 12:35:01;;;;;;;6.22;3.47;;;22.90;99.00;;;;;;5057702;28;20066;-75
2021/06/11 12:37:26;;;;;;;3.20;2.90;;;22.80;98.70;;;;;;5064541;28;20206;-76
2021/06/11 12:39:54;;;;;;;4.45;3.30;;;22.80;99.20;;;;;;5068827;28;20491;-74
2021/06/11 12:42:26;;;;;;;3.00;2.67;;;22.90;99.60;;;;;;5065956;28;20138;-75
2021/06/11 12:44:52;;;;;;;3.95;3.00;;;23.10;99.90;;;;;;5045707;28;20078;-75
2021/06/11 12:47:17;;;;;;;11.15;5.70;;;23.00;99.50;;;;;;5065081;28;20104;-75
2021/06/11 12:49:43;;;;;;;3.90;2.67;;;23.00;99.10;;;;;;5068034;28;20088;-76
2021/06/11 12:52:09;;;;;;;3.70;3.38;;;23.00;99.20;;;;;;5068166;28;20096;-76
2021/06/11 12:54:35;;;;;;;3.05;2.70;;;23.00;99.20;;;;;;5067538;28;20145;-75
2021/06/11 12:57:01;;;;;;;5.53;2.42;;;23.00;99.00;;;;;;5053737;28;20451;-78